sensor_id;sensor_type;location;lat;lon;timestamp;pressure;altitude;pressure_sealevel;temperature;humidity
41967;BME280;27656;53.068;8.818;2023-07-31T00:01:12;100851.03;;;15.49;75.84
41967;BME280;27656;53.068;8.818;2023-07-31T00:03:38;100840.03;;;15.52;76.37
41967;BME280;27656;53.068;8.818;2023-07-31T00:06:05;100835.53;;;15.53;76.52
41967;BME280;27656;53.068;8.818;2023-07-31T00:08:31;100834.59;;;15.60;76.48
41967;BME280;27656;53.068;8.818;2023-07-31T00:10:58;100831.19;;;15.66;75.78
41967;BME280;27656;53.068;8.818;2023-07-31T00:13:24;100835.47;;;15.67;75.58
41967;BME280;27656;53.068;8.818;2023-07-31T00:15:51;100835.88;;;15.64;76.10
41967;BME280;27656;53.068;8.818;2023-07-31T00:18:17;100826.22;;;15.63;75.73
41967;BME280;27656;53.068;8.818;2023-07-31T00:20:44;100831.63;;;15.70;76.35
41967;BME280;27656;53.068;8.818;2023-07-31T00:23:10;100832.81;;;15.67;75.86
41967;BME280;27656;53.068;8.818;2023-07-31T00:25:37;100827.66;;;15.66;75.88
41967;BME280;27656;53.068;8.818;2023-07-31T00:28:03;100825.41;;;15.63;75.77
41967;BME280;27656;53.068;8.818;2023-07-31T00:30:30;100825.22;;;15.64;76.10
41967;BME280;27656;53.068;8.818;2023-07-31T00:32:56;100824.59;;;15.62;75.97
41967;BME280;27656;53.068;8.818;2023-07-31T00:35:23;100828.06;;;15.63;75.90
41967;BME280;27656;53.068;8.818;2023-07-31T00:37:50;100824.13;;;15.59;76.51
41967;BME280;27656;53.068;8.818;2023-07-31T00:40:16;100821.22;;;15.54;76.35
41967;BME280;27656;53.068;8.818;2023-07-31T00:42:43;100819.13;;;15.49;76.86
41967;BME280;27656;53.068;8.818;2023-07-31T00:45:09;100820.97;;;15.48;76.94
41967;BME280;27656;53.068;8.818;2023-07-31T00:47:36;100820.88;;;15.42;76.57
41967;BME280;27656;53.068;8.818;2023-07-31T00:50:03;100816.59;;;15.41;77.00
41967;BME280;27656;53.068;8.818;2023-07-31T00:52:30;100817.16;;;15.36;76.87
41967;BME280;27656;53.068;8.818;2023-07-31T00:54:56;100815.31;;;15.37;77.28
41967;BME280;27656;53.068;8.818;2023-07-31T00:57:23;100816.59;;;15.41;76.98
41967;BME280;27656;53.068;8.818;2023-07-31T00:59:49;100813.13;;;15.40;77.16
41967;BME280;27656;53.068;8.818;2023-07-31T01:02:16;100809.56;;;15.33;77.43
41967;BME280;27656;53.068;8.818;2023-07-31T01:04:43;100801.94;;;15.30;77.20
41967;BME280;27656;53.068;8.818;2023-07-31T01:07:24;100801.31;;;15.28;77.73
41967;BME280;27656;53.068;8.818;2023-07-31T01:12:30;100810.28;;;15.27;77.59
41967;BME280;27656;53.068;8.818;2023-07-31T01:17:27;100793.22;;;15.36;77.95
41967;BME280;27656;53.068;8.818;2023-07-31T01:19:55;100797.31;;;15.39;77.65
41967;BME280;27656;53.068;8.818;2023-07-31T01:22:44;100791.63;;;15.42;77.41
41967;BME280;27656;53.068;8.818;2023-07-31T01:28:53;100800.63;;;15.41;78.20
41967;BME280;27656;53.068;8.818;2023-07-31T01:31:20;100798.78;;;15.41;77.99
41967;BME280;27656;53.068;8.818;2023-07-31T01:33:49;100802.59;;;15.54;77.70
41967;BME280;27656;53.068;8.818;2023-07-31T01:36:16;100796.19;;;15.48;77.22
41967;BME280;27656;53.068;8.818;2023-07-31T01:38:43;100792.56;;;15.56;77.21
41967;BME280;27656;53.068;8.818;2023-07-31T01:41:10;100787.47;;;15.54;77.64
41967;BME280;27656;53.068;8.818;2023-07-31T01:43:36;100789.50;;;15.52;77.64
41967;BME280;27656;53.068;8.818;2023-07-31T01:46:02;100785.81;;;15.53;78.08
41967;BME280;27656;53.068;8.818;2023-07-31T01:48:29;100790.88;;;15.48;78.22
41967;BME280;27656;53.068;8.818;2023-07-31T01:51:02;100777.50;;;15.41;78.55
41967;BME280;27656;53.068;8.818;2023-07-31T01:53:30;100776.50;;;15.42;78.83
41967;BME280;27656;53.068;8.818;2023-07-31T01:55:57;100771.44;;;15.47;78.93
41967;BME280;27656;53.068;8.818;2023-07-31T01:58:24;100763.81;;;15.44;78.93
41967;BME280;27656;53.068;8.818;2023-07-31T02:00:50;100767.63;;;15.35;79.40
41967;BME280;27656;53.068;8.818;2023-07-31T02:03:17;100770.09;;;15.37;79.49
41967;BME280;27656;53.068;8.818;2023-07-31T02:05:45;100766.16;;;15.33;79.65
41967;BME280;27656;53.068;8.818;2023-07-31T02:08:12;100760.41;;;15.29;79.45
41967;BME280;27656;53.068;8.818;2023-07-31T02:10:38;100756.94;;;15.29;79.46
41967;BME280;27656;53.068;8.818;2023-07-31T02:13:05;100760.31;;;15.22;79.68
41967;BME280;27656;53.068;8.818;2023-07-31T02:15:31;100755.50;;;15.33;79.84
41967;BME280;27656;53.068;8.818;2023-07-31T02:17:58;100744.38;;;15.22;79.78
41967;BME280;27656;53.068;8.818;2023-07-31T02:20:25;100750.56;;;15.30;80.61
41967;BME280;27656;53.068;8.818;2023-07-31T02:22:51;100746.78;;;15.17;80.13
41967;BME280;27656;53.068;8.818;2023-07-31T02:25:18;100745.16;;;15.16;80.53
41967;BME280;27656;53.068;8.818;2023-07-31T02:27:44;100744.28;;;15.16;81.44
41967;BME280;27656;53.068;8.818;2023-07-31T02:30:11;100737.78;;;15.18;81.13
41967;BME280;27656;53.068;8.818;2023-07-31T02:32:37;100736.56;;;15.21;81.10
41967;BME280;27656;53.068;8.818;2023-07-31T02:35:04;100730.00;;;15.17;81.21
41967;BME280;27656;53.068;8.818;2023-07-31T02:37:31;100725.03;;;15.14;81.50
41967;BME280;27656;53.068;8.818;2023-07-31T02:39:57;100728.28;;;15.09;81.33
41967;BME280;27656;53.068;8.818;2023-07-31T02:42:24;100727.44;;;15.09;81.05
41967;BME280;27656;53.068;8.818;2023-07-31T02:44:50;100724.69;;;15.17;81.20
41967;BME280;27656;53.068;8.818;2023-07-31T02:47:22;100734.44;;;15.10;81.34
41967;BME280;27656;53.068;8.818;2023-07-31T02:49:49;100732.13;;;15.06;81.76
41967;BME280;27656;53.068;8.818;2023-07-31T02:52:15;100725.56;;;15.02;81.58
41967;BME280;27656;53.068;8.818;2023-07-31T02:54:42;100725.56;;;15.02;81.46
41967;BME280;27656;53.068;8.818;2023-07-31T02:57:08;100734.34;;;15.03;81.71
41967;BME280;27656;53.068;8.818;2023-07-31T02:59:34;100731.25;;;14.99;81.66
41967;BME280;27656;53.068;8.818;2023-07-31T03:02:01;100733.34;;;15.04;81.86
41967;BME280;27656;53.068;8.818;2023-07-31T03:04:27;100733.34;;;15.04;82.13
41967;BME280;27656;53.068;8.818;2023-07-31T03:06:54;100738.72;;;15.11;81.98
41967;BME280;27656;53.068;8.818;2023-07-31T03:09:20;100735.63;;;15.07;81.90
41967;BME280;27656;53.068;8.818;2023-07-31T03:11:47;100730.31;;;15.07;82.21
41967;BME280;27656;53.068;8.818;2023-07-31T03:14:13;100730.06;;;15.02;81.72
41967;BME280;27656;53.068;8.818;2023-07-31T03:16:43;100726.38;;;15.03;81.63
41967;BME280;27656;53.068;8.818;2023-07-31T03:19:09;100721.06;;;15.03;81.56
41967;BME280;27656;53.068;8.818;2023-07-31T03:21:36;100723.66;;;14.96;82.25
41967;BME280;27656;53.068;8.818;2023-07-31T03:24:03;100720.59;;;14.99;81.89
41967;BME280;27656;53.068;8.818;2023-07-31T03:26:31;100720.00;;;14.97;81.68
41967;BME280;27656;53.068;8.818;2023-07-31T03:28:58;100725.50;;;14.96;81.49
41967;BME280;27656;53.068;8.818;2023-07-31T03:31:24;100725.75;;;15.01;81.72
41967;BME280;27656;53.068;8.818;2023-07-31T03:33:51;100724.53;;;15.03;82.00
41967;BME280;27656;53.068;8.818;2023-07-31T03:36:17;100727.19;;;15.03;81.55
41967;BME280;27656;53.068;8.818;2023-07-31T03:38:44;100720.00;;;14.97;81.74
41967;BME280;27656;53.068;8.818;2023-07-31T03:41:10;100718.59;;;15.01;82.18
41967;BME280;27656;53.068;8.818;2023-07-31T03:43:37;100713.66;;;14.98;81.98
41967;BME280;27656;53.068;8.818;2023-07-31T03:46:03;100716.94;;;15.00;81.77
41967;BME280;27656;53.068;8.818;2023-07-31T03:48:30;100709.34;;;14.97;81.76
41967;BME280;27656;53.068;8.818;2023-07-31T03:50:57;100713.25;;;15.01;81.88
41967;BME280;27656;53.068;8.818;2023-07-31T03:53:23;100715.28;;;14.99;82.06
41967;BME280;27656;53.068;8.818;2023-07-31T03:55:50;100710.19;;;14.98;81.79
41967;BME280;27656;53.068;8.818;2023-07-31T03:58:16;100706.50;;;14.99;82.25
41967;BME280;27656;53.068;8.818;2023-07-31T04:00:43;100711.44;;;15.02;81.86
41967;BME280;27656;53.068;8.818;2023-07-31T04:03:09;100709.41;;;15.04;82.17
41967;BME280;27656;53.068;8.818;2023-07-31T04:05:38;100709.97;;;14.99;81.68
41967;BME280;27656;53.068;8.818;2023-07-31T04:08:05;100706.13;;;15.02;82.07
41967;BME280;27656;53.068;8.818;2023-07-31T04:10:32;100713.09;;;15.03;82.37
41967;BME280;27656;53.068;8.818;2023-07-31T04:13:00;100707.31;;;14.99;81.87
41967;BME280;27656;53.068;8.818;2023-07-31T04:15:29;100706.13;;;15.02;82.60
41967;BME280;27656;53.068;8.818;2023-07-31T04:17:55;100707.31;;;14.99;82.33
41967;BME280;27656;53.068;8.818;2023-07-31T04:20:22;100695.94;;;15.05;82.20
41967;BME280;27656;53.068;8.818;2023-07-31T04:22:49;100692.53;;;15.12;82.42
41967;BME280;27656;53.068;8.818;2023-07-31T04:25:15;100694.72;;;15.08;82.30
41967;BME280;27656;53.068;8.818;2023-07-31T04:27:42;100682.31;;;15.15;82.31
41967;BME280;27656;53.068;8.818;2023-07-31T04:30:08;100681.25;;;15.10;82.06
41967;BME280;27656;53.068;8.818;2023-07-31T04:32:35;100684.97;;;15.15;82.34
41967;BME280;27656;53.068;8.818;2023-07-31T04:35:02;100685.63;;;15.17;82.54
41967;BME280;27656;53.068;8.818;2023-07-31T04:37:29;100676.56;;;15.12;82.39
41967;BME280;27656;53.068;8.818;2023-07-31T04:39:55;100678.19;;;15.13;82.68
41967;BME280;27656;53.068;8.818;2023-07-31T04:42:21;100663.88;;;15.14;83.01
41967;BME280;27656;53.068;8.818;2023-07-31T04:44:48;100668.84;;;15.17;82.95
41967;BME280;27656;53.068;8.818;2023-07-31T04:47:15;100675.78;;;15.18;82.18
41967;BME280;27656;53.068;8.818;2023-07-31T04:49:41;100678.06;;;15.21;82.68
41967;BME280;27656;53.068;8.818;2023-07-31T04:52:08;100668.50;;;15.26;81.73
41967;BME280;27656;53.068;8.818;2023-07-31T04:54:34;100669.72;;;15.24;82.40
41967;BME280;27656;53.068;8.818;2023-07-31T04:57:01;100662.38;;;15.26;82.23
41967;BME280;27656;53.068;8.818;2023-07-31T04:59:27;100660.59;;;15.33;81.84
41967;BME280;27656;53.068;8.818;2023-07-31T05:01:53;100666.28;;;15.30;81.85
41967;BME280;27656;53.068;8.818;2023-07-31T05:04:20;100657.06;;;15.26;81.98
41967;BME280;27656;53.068;8.818;2023-07-31T05:06:47;100656.28;;;15.32;82.40
41967;BME280;27656;53.068;8.818;2023-07-31T05:09:13;100659.00;;;15.39;81.83
41967;BME280;27656;53.068;8.818;2023-07-31T05:11:40;100661.13;;;15.50;82.11
41967;BME280;27656;53.068;8.818;2023-07-31T05:14:09;100662.00;;;15.57;81.67
41967;BME280;27656;53.068;8.818;2023-07-31T05:16:35;100659.34;;;15.57;81.13
41967;BME280;27656;53.068;8.818;2023-07-31T05:19:02;100644.66;;;15.61;81.43
41967;BME280;27656;53.068;8.818;2023-07-31T05:21:29;100652.19;;;15.58;81.13
41967;BME280;27656;53.068;8.818;2023-07-31T05:23:55;100654.66;;;15.59;80.92
41967;BME280;27656;53.068;8.818;2023-07-31T05:26:22;100664.09;;;15.62;81.13
41967;BME280;27656;53.068;8.818;2023-07-31T05:28:48;100662.19;;;15.56;81.02
41967;BME280;27656;53.068;8.818;2023-07-31T05:31:15;100660.31;;;15.50;80.91
41967;BME280;27656;53.068;8.818;2023-07-31T05:33:41;100647.38;;;15.46;81.01
41967;BME280;27656;53.068;8.818;2023-07-31T05:36:09;100650.69;;;15.48;81.38
41967;BME280;27656;53.068;8.818;2023-07-31T05:38:35;100642.88;;;15.47;81.14
41967;BME280;27656;53.068;8.818;2023-07-31T05:41:02;100648.06;;;15.55;81.01
41967;BME280;27656;53.068;8.818;2023-07-31T05:43:28;100633.16;;;15.61;81.75
41967;BME280;27656;53.068;8.818;2023-07-31T05:45:55;100638.72;;;15.66;81.23
41967;BME280;27656;53.068;8.818;2023-07-31T05:48:21;100639.00;;;15.71;80.61
41967;BME280;27656;53.068;8.818;2023-07-31T05:50:48;100628.38;;;15.78;80.57
41967;BME280;27656;53.068;8.818;2023-07-31T05:53:14;100626.56;;;15.85;81.09
41967;BME280;27656;53.068;8.818;2023-07-31T05:55:41;100624.91;;;15.77;81.13
41967;BME280;27656;53.068;8.818;2023-07-31T05:58:07;100623.53;;;15.88;81.24
41967;BME280;27656;53.068;8.818;2023-07-31T06:00:34;100627.25;;;15.94;81.67
41967;BME280;27656;53.068;8.818;2023-07-31T06:03:00;100614.97;;;15.93;81.14
41967;BME280;27656;53.068;8.818;2023-07-31T06:05:27;100622.31;;;15.90;80.73
41967;BME280;27656;53.068;8.818;2023-07-31T06:07:57;100617.34;;;15.81;81.01
41967;BME280;27656;53.068;8.818;2023-07-31T06:10:23;100617.13;;;15.82;80.90
41967;BME280;27656;53.068;8.818;2023-07-31T06:12:50;100620.66;;;15.83;81.37
41967;BME280;27656;53.068;8.818;2023-07-31T06:15:16;100617.13;;;15.82;81.24
41967;BME280;27656;53.068;8.818;2023-07-31T06:17:45;100617.19;;;15.89;81.50
41967;BME280;27656;53.068;8.818;2023-07-31T06:20:12;100612.88;;;15.88;81.42
41967;BME280;27656;53.068;8.818;2023-07-31T06:22:38;100610.41;;;15.86;81.17
41967;BME280;27656;53.068;8.818;2023-07-31T06:25:05;100602.66;;;15.92;81.42
41967;BME280;27656;53.068;8.818;2023-07-31T06:27:31;100606.13;;;15.85;81.19
41967;BME280;27656;53.068;8.818;2023-07-31T06:29:58;100594.63;;;15.85;80.80
41967;BME280;27656;53.068;8.818;2023-07-31T06:32:24;100602.03;;;15.89;81.59
41967;BME280;27656;53.068;8.818;2023-07-31T06:34:51;100601.03;;;15.90;81.54
41967;BME280;27656;53.068;8.818;2023-07-31T06:37:18;100585.91;;;15.98;81.93
41967;BME280;27656;53.068;8.818;2023-07-31T06:39:44;100595.31;;;16.00;81.59
41967;BME280;27656;53.068;8.818;2023-07-31T06:42:11;100590.41;;;16.04;81.63
41967;BME280;27656;53.068;8.818;2023-07-31T06:44:37;100589.00;;;16.08;81.79
41967;BME280;27656;53.068;8.818;2023-07-31T06:47:04;100579.75;;;15.97;81.24
41967;BME280;27656;53.068;8.818;2023-07-31T06:49:31;100585.50;;;16.01;81.79
41967;BME280;27656;53.068;8.818;2023-07-31T06:51:57;100579.16;;;16.02;81.96
41967;BME280;27656;53.068;8.818;2023-07-31T06:54:23;100583.25;;;16.04;81.42
41967;BME280;27656;53.068;8.818;2023-07-31T06:56:50;100569.13;;;16.10;82.22
41967;BME280;27656;53.068;8.818;2023-07-31T06:59:16;100571.78;;;16.10;81.82
41967;BME280;27656;53.068;8.818;2023-07-31T07:01:43;100573.25;;;16.13;81.64
41967;BME280;27656;53.068;8.818;2023-07-31T07:04:09;100573.88;;;16.15;81.93
41967;BME280;27656;53.068;8.818;2023-07-31T07:06:36;100568.53;;;16.15;81.85
41967;BME280;27656;53.068;8.818;2023-07-31T07:09:03;100565.91;;;16.22;81.81
41967;BME280;27656;53.068;8.818;2023-07-31T07:11:32;100569.81;;;16.26;81.81
41967;BME280;27656;53.068;8.818;2023-07-31T07:13:58;100568.97;;;16.19;81.66
41967;BME280;27656;53.068;8.818;2023-07-31T07:16:25;100568.59;;;16.28;81.86
41967;BME280;27656;53.068;8.818;2023-07-31T07:18:51;100568.59;;;16.28;82.09
41967;BME280;27656;53.068;8.818;2023-07-31T07:21:30;100562.44;;;16.28;81.40
41967;BME280;27656;53.068;8.818;2023-07-31T07:23:56;100567.59;;;16.36;81.70
41967;BME280;27656;53.068;8.818;2023-07-31T07:26:23;100562.25;;;16.36;82.00
41967;BME280;27656;53.068;8.818;2023-07-31T07:28:50;100567.00;;;16.47;81.71
41967;BME280;27656;53.068;8.818;2023-07-31T07:31:16;100562.47;;;16.48;81.43
41967;BME280;27656;53.068;8.818;2023-07-31T07:33:43;100556.34;;;16.47;81.42
41967;BME280;27656;53.068;8.818;2023-07-31T07:36:09;100559.00;;;16.47;81.50
41967;BME280;27656;53.068;8.818;2023-07-31T07:38:36;100562.47;;;16.48;81.15
41967;BME280;27656;53.068;8.818;2023-07-31T07:41:04;100565.34;;;16.53;80.84
41967;BME280;27656;53.068;8.818;2023-07-31T07:43:31;100559.41;;;16.51;80.89
41967;BME280;27656;53.068;8.818;2023-07-31T07:45:57;100558.81;;;16.56;81.41
41967;BME280;27656;53.068;8.818;2023-07-31T07:48:24;100556.59;;;16.66;81.53
41967;BME280;27656;53.068;8.818;2023-07-31T07:50:51;100552.88;;;16.67;81.08
41967;BME280;27656;53.068;8.818;2023-07-31T07:53:18;100559.84;;;16.68;81.19
41967;BME280;27656;53.068;8.818;2023-07-31T07:55:44;100555.13;;;16.57;81.09
41967;BME280;27656;53.068;8.818;2023-07-31T07:58:11;100557.56;;;16.58;80.59
41967;BME280;27656;53.068;8.818;2023-07-31T08:00:38;100553.28;;;16.64;81.20
41967;BME280;27656;53.068;8.818;2023-07-31T08:03:04;100548.59;;;16.66;81.22
41967;BME280;27656;53.068;8.818;2023-07-31T08:05:31;100550.03;;;16.82;81.24
41967;BME280;27656;53.068;8.818;2023-07-31T08:08:00;100543.84;;;16.74;80.61
41967;BME280;27656;53.068;8.818;2023-07-31T08:10:27;100540.81;;;16.91;80.55
41967;BME280;27656;53.068;8.818;2023-07-31T08:12:53;100545.72;;;16.94;79.63
41967;BME280;27656;53.068;8.818;2023-07-31T08:15:20;100540.81;;;16.98;79.80
41967;BME280;27656;53.068;8.818;2023-07-31T08:17:46;100552.72;;;17.02;79.85
41967;BME280;27656;53.068;8.818;2023-07-31T08:20:13;100539.38;;;16.95;79.68
41967;BME280;27656;53.068;8.818;2023-07-31T08:22:40;100537.53;;;16.95;80.15
41967;BME280;27656;53.068;8.818;2023-07-31T08:25:07;100535.47;;;17.04;79.96
41967;BME280;27656;53.068;8.818;2023-07-31T08:27:33;100535.88;;;17.21;79.35
41967;BME280;27656;53.068;8.818;2023-07-31T08:30:00;100535.69;;;17.09;78.92
41967;BME280;27656;53.068;8.818;2023-07-31T08:32:26;100534.66;;;17.10;79.21
41967;BME280;27656;53.068;8.818;2023-07-31T08:34:53;100522.31;;;17.29;78.87
41967;BME280;27656;53.068;8.818;2023-07-31T08:37:19;100519.41;;;17.37;78.36
41967;BME280;27656;53.068;8.818;2023-07-31T08:39:46;100527.44;;;17.37;78.26
41967;BME280;27656;53.068;8.818;2023-07-31T08:42:12;100521.47;;;17.35;77.97
41967;BME280;27656;53.068;8.818;2023-07-31T08:44:39;100516.94;;;17.43;77.90
41967;BME280;27656;53.068;8.818;2023-07-31T08:47:06;100517.75;;;17.43;78.14
41967;BME280;27656;53.068;8.818;2023-07-31T08:49:33;100520.41;;;17.50;77.27
41967;BME280;27656;53.068;8.818;2023-07-31T08:52:01;100508.94;;;17.49;77.17
41967;BME280;27656;53.068;8.818;2023-07-31T08:54:29;100513.44;;;17.49;76.94
41967;BME280;27656;53.068;8.818;2023-07-31T08:56:57;100510.34;;;17.52;77.36
41967;BME280;27656;53.068;8.818;2023-07-31T08:59:29;100511.50;;;17.69;77.03
41967;BME280;27656;53.068;8.818;2023-07-31T09:01:59;100505.28;;;17.89;76.35
41967;BME280;27656;53.068;8.818;2023-07-31T09:04:31;100502.84;;;17.87;76.80
41967;BME280;27656;53.068;8.818;2023-07-31T09:07:01;100503.88;;;17.86;76.02
41967;BME280;27656;53.068;8.818;2023-07-31T09:09:31;100509.59;;;17.96;76.31
41967;BME280;27656;53.068;8.818;2023-07-31T09:11:58;100512.50;;;17.88;76.01
41967;BME280;27656;53.068;8.818;2023-07-31T09:14:26;100508.56;;;17.91;75.95
41967;BME280;27656;53.068;8.818;2023-07-31T09:16:56;100519.84;;;17.99;75.91
41967;BME280;27656;53.068;8.818;2023-07-31T09:19:35;100512.06;;;17.91;76.09
41967;BME280;27656;53.068;8.818;2023-07-31T09:22:06;100510.44;;;17.90;76.13
41967;BME280;27656;53.068;8.818;2023-07-31T09:24:33;100514.97;;;17.76;76.19
41967;BME280;27656;53.068;8.818;2023-07-31T09:27:01;100507.63;;;17.65;76.02
41967;BME280;27656;53.068;8.818;2023-07-31T09:29:28;100502.53;;;17.57;75.97
41967;BME280;27656;53.068;8.818;2023-07-31T09:31:56;100507.50;;;17.47;76.88
41967;BME280;27656;53.068;8.818;2023-07-31T09:34:30;100504.16;;;17.58;76.67
41967;BME280;27656;53.068;8.818;2023-07-31T09:37:02;100501.09;;;17.54;76.80
41967;BME280;27656;53.068;8.818;2023-07-31T09:39:29;100499.66;;;17.58;77.09
41967;BME280;27656;53.068;8.818;2023-07-31T09:41:56;100495.34;;;17.57;77.61
41967;BME280;27656;53.068;8.818;2023-07-31T09:44:40;100488.28;;;17.76;77.53
41967;BME280;27656;53.068;8.818;2023-07-31T09:47:24;100484.34;;;17.79;77.13
41967;BME280;27656;53.068;8.818;2023-07-31T09:49:52;100487.81;;;17.93;76.54
41967;BME280;27656;53.068;8.818;2023-07-31T09:52:19;100476.06;;;18.00;77.67
41967;BME280;27656;53.068;8.818;2023-07-31T09:54:45;100481.94;;;18.16;76.87
41967;BME280;27656;53.068;8.818;2023-07-31T09:57:12;100474.06;;;18.28;76.71
41967;BME280;27656;53.068;8.818;2023-07-31T09:59:39;100475.44;;;18.37;75.47
41967;BME280;27656;53.068;8.818;2023-07-31T10:02:09;100466.94;;;18.47;74.56
41967;BME280;27656;53.068;8.818;2023-07-31T10:04:43;100462.44;;;18.40;75.17
41967;BME280;27656;53.068;8.818;2023-07-31T10:07:13;100460.75;;;18.46;75.29
41967;BME280;27656;53.068;8.818;2023-07-31T10:09:41;100454.03;;;18.37;75.33
41967;BME280;27656;53.068;8.818;2023-07-31T10:12:09;100452.34;;;18.42;75.80
41967;BME280;27656;53.068;8.818;2023-07-31T10:14:39;100441.81;;;18.73;76.19
41967;BME280;27656;53.068;8.818;2023-07-31T10:17:08;100443.88;;;18.77;75.40
41967;BME280;27656;53.068;8.818;2023-07-31T10:19:35;100451.50;;;18.67;75.53
41967;BME280;27656;53.068;8.818;2023-07-31T10:22:02;100444.88;;;18.76;75.49
41967;BME280;27656;53.068;8.818;2023-07-31T10:24:29;100435.31;;;18.87;75.56
41967;BME280;27656;53.068;8.818;2023-07-31T10:26:58;100441.88;;;19.10;75.06
41967;BME280;27656;53.068;8.818;2023-07-31T10:29:26;100434.88;;;18.90;74.03
41967;BME280;27656;53.068;8.818;2023-07-31T10:31:54;100433.69;;;19.04;75.33
41967;BME280;27656;53.068;8.818;2023-07-31T10:34:22;100439.25;;;19.03;75.57
41967;BME280;27656;53.068;8.818;2023-07-31T10:36:48;100436.53;;;18.91;75.41
41967;BME280;27656;53.068;8.818;2023-07-31T10:39:37;100423.59;;;19.06;74.55
41967;BME280;27656;53.068;8.818;2023-07-31T10:42:13;100431.63;;;19.06;75.02
41967;BME280;27656;53.068;8.818;2023-07-31T10:44:46;100431.34;;;18.96;75.26
41967;BME280;27656;53.068;8.818;2023-07-31T10:47:17;100421.56;;;18.83;75.87
41967;BME280;27656;53.068;8.818;2023-07-31T10:49:46;100425.81;;;18.66;76.35
41967;BME280;27656;53.068;8.818;2023-07-31T10:52:13;100407.75;;;18.61;76.83
41967;BME280;27656;53.068;8.818;2023-07-31T10:54:40;100411.84;;;18.64;76.75
41967;BME280;27656;53.068;8.818;2023-07-31T10:57:24;100411.69;;;18.59;76.59
41967;BME280;27656;53.068;8.818;2023-07-31T11:00:20;100412.34;;;18.54;77.09
41967;BME280;27656;53.068;8.818;2023-07-31T11:03:03;100415.56;;;18.63;76.81
41967;BME280;27656;53.068;8.818;2023-07-31T11:05:44;100408.16;;;18.65;77.28
41967;BME280;27656;53.068;8.818;2023-07-31T11:08:15;100412.91;;;18.63;76.31
41967;BME280;27656;53.068;8.818;2023-07-31T11:10:47;100401.50;;;18.93;76.26
41967;BME280;27656;53.068;8.818;2023-07-31T11:13:14;100407.53;;;19.06;75.66
41967;BME280;27656;53.068;8.818;2023-07-31T11:15:40;100398.78;;;19.18;75.97
41967;BME280;27656;53.068;8.818;2023-07-31T11:18:07;100401.88;;;19.15;74.95
41967;BME280;27656;53.068;8.818;2023-07-31T11:20:37;100394.44;;;19.17;75.37
41967;BME280;27656;53.068;8.818;2023-07-31T11:23:08;100400.31;;;19.07;75.29
41967;BME280;27656;53.068;8.818;2023-07-31T11:25:36;100388.22;;;19.04;74.97
41967;BME280;27656;53.068;8.818;2023-07-31T11:28:04;100383.81;;;19.28;75.35
41967;BME280;27656;53.068;8.818;2023-07-31T11:30:31;100379.56;;;19.39;73.85
41967;BME280;27656;53.068;8.818;2023-07-31T11:33:00;100380.69;;;19.32;74.11
41967;BME280;27656;53.068;8.818;2023-07-31T11:35:27;100383.66;;;19.42;73.93
41967;BME280;27656;53.068;8.818;2023-07-31T11:37:53;100380.53;;;19.26;73.94
41967;BME280;27656;53.068;8.818;2023-07-31T11:40:20;100396.09;;;18.99;75.07
41967;BME280;27656;53.068;8.818;2023-07-31T11:42:51;100389.03;;;18.87;75.87
41967;BME280;27656;53.068;8.818;2023-07-31T11:45:18;100385.91;;;18.90;76.34
41967;BME280;27656;53.068;8.818;2023-07-31T11:47:45;100383.19;;;18.96;76.70
41967;BME280;27656;53.068;8.818;2023-07-31T11:50:12;100382.34;;;19.14;76.56
41967;BME280;27656;53.068;8.818;2023-07-31T11:52:42;100382.09;;;19.34;76.43
41967;BME280;27656;53.068;8.818;2023-07-31T11:55:10;100380.66;;;19.50;76.60
41967;BME280;27656;53.068;8.818;2023-07-31T11:57:39;100384.28;;;19.86;76.33
41967;BME280;27656;53.068;8.818;2023-07-31T12:00:08;100373.06;;;20.07;74.35
41967;BME280;27656;53.068;8.818;2023-07-31T12:02:36;100368.97;;;20.17;73.78
41967;BME280;27656;53.068;8.818;2023-07-31T12:05:03;100372.72;;;20.16;73.24
41967;BME280;27656;53.068;8.818;2023-07-31T12:07:46;100369.31;;;19.97;74.48
41967;BME280;27656;53.068;8.818;2023-07-31T12:10:31;100364.44;;;20.05;74.12
41967;BME280;27656;53.068;8.818;2023-07-31T12:13:07;100362.53;;;19.64;74.34
41967;BME280;27656;53.068;8.818;2023-07-31T12:15:41;100358.50;;;19.43;75.57
41967;BME280;27656;53.068;8.818;2023-07-31T12:18:12;100360.44;;;19.36;75.52
41967;BME280;27656;53.068;8.818;2023-07-31T12:20:44;100358.63;;;19.36;76.16
41967;BME280;27656;53.068;8.818;2023-07-31T12:23:20;100352.56;;;19.41;76.60
41967;BME280;27656;53.068;8.818;2023-07-31T12:26:22;100357.13;;;19.52;77.46
41967;BME280;27656;53.068;8.818;2023-07-31T12:28:50;100355.19;;;19.59;76.17
41967;BME280;27656;53.068;8.818;2023-07-31T12:31:21;100346.44;;;19.52;76.48
41967;BME280;27656;53.068;8.818;2023-07-31T12:33:51;100337.09;;;19.43;76.40
41967;BME280;27656;53.068;8.818;2023-07-31T12:36:20;100338.88;;;19.49;75.66
41967;BME280;27656;53.068;8.818;2023-07-31T12:38:47;100339.66;;;19.49;76.52
41967;BME280;27656;53.068;8.818;2023-07-31T12:41:15;100336.09;;;19.56;76.85
41967;BME280;27656;53.068;8.818;2023-07-31T12:43:44;100339.50;;;19.63;76.25
41967;BME280;27656;53.068;8.818;2023-07-31T12:46:11;100333.22;;;19.69;76.40
41967;BME280;27656;53.068;8.818;2023-07-31T12:48:38;100325.28;;;19.62;75.74
41967;BME280;27656;53.068;8.818;2023-07-31T12:51:05;100334.72;;;19.65;76.04
41967;BME280;27656;53.068;8.818;2023-07-31T12:53:33;100329.66;;;19.75;75.17
41967;BME280;27656;53.068;8.818;2023-07-31T12:56:01;100331.00;;;20.08;74.11
41967;BME280;27656;53.068;8.818;2023-07-31T12:58:28;100333.06;;;19.94;74.02
41967;BME280;27656;53.068;8.818;2023-07-31T13:00:54;100331.19;;;19.83;74.30
41967;BME280;27656;53.068;8.818;2023-07-31T13:03:20;100340.03;;;19.95;74.32